createdAt,value
2023-01-12T00:00:38.579Z,1020.76
2023-01-12T00:05:38.755Z,1020.83
2023-01-12T00:10:37.925Z,1020.83
2023-01-12T00:15:40.228Z,1020.71
2023-01-12T00:20:39.397Z,1020.82
2023-01-12T00:25:40.543Z,1020.92
2023-01-12T00:30:41.716Z,1020.68
2023-01-12T00:35:42.839Z,1020.63
2023-01-12T00:40:43.998Z,1020.58
2023-01-12T00:45:45.161Z,1020.65
2023-01-12T00:50:46.315Z,1020.78
2023-01-12T00:55:47.462Z,1020.80
2023-01-12T01:00:48.587Z,1020.79
2023-01-12T01:05:49.755Z,1020.75
2023-01-12T01:10:51.846Z,1020.73
2023-01-12T01:15:52.053Z,1020.68
2023-01-12T01:20:51.246Z,1020.58
2023-01-12T01:25:53.414Z,1020.56
2023-01-12T01:30:52.547Z,1020.69
2023-01-12T01:35:54.753Z,1020.72
2023-01-12T01:40:54.866Z,1020.69
2023-01-12T01:45:55.045Z,1020.76
2023-01-12T01:50:54.171Z,1020.79
2023-01-12T01:55:56.280Z,1020.74
2023-01-12T02:00:55.465Z,1020.77
2023-01-12T02:05:57.592Z,1020.76
2023-01-12T02:11:15.013Z,1020.71
2023-01-12T02:15:58.244Z,1020.68
2023-01-12T02:20:59.368Z,1020.73
2023-01-12T02:26:01.562Z,1020.66
2023-01-12T02:31:00.745Z,1020.71
2023-01-12T02:36:01.886Z,1020.65
2023-01-12T02:41:03.014Z,1020.72
2023-01-12T02:46:04.152Z,1020.81
2023-01-12T02:51:06.352Z,1020.71
2023-01-12T02:56:05.481Z,1020.81
2023-01-12T03:01:06.697Z,1020.76
2023-01-12T03:06:08.867Z,1020.69
2023-01-12T03:11:07.979Z,1020.74
2023-01-12T03:16:09.142Z,1020.65
2023-01-12T03:21:10.260Z,1020.56
2023-01-12T03:26:11.710Z,1020.44
2023-01-12T03:31:12.882Z,1020.23
2023-01-12T03:36:14.029Z,1020.06
2023-01-12T03:41:15.200Z,1019.95
2023-01-12T03:46:16.381Z,1019.96
2023-01-12T03:51:17.545Z,1020.07
2023-01-12T03:56:18.703Z,1020.08
2023-01-12T04:01:19.972Z,1019.98
2023-01-12T04:06:21.164Z,1020.13
2023-01-12T04:11:22.285Z,1020.24
2023-01-12T04:16:23.465Z,1020.25
2023-01-12T04:21:24.670Z,1020.27
2023-01-12T04:26:25.771Z,1020.17
2023-01-12T04:31:27.000Z,1020.12
2023-01-12T04:36:28.153Z,1020.16
2023-01-12T04:41:29.349Z,1020.25
2023-01-12T04:46:30.487Z,1020.30
2023-01-12T04:51:31.752Z,1020.20
2023-01-12T04:56:32.872Z,1020.06
2023-01-12T05:01:34.064Z,1020.14
2023-01-12T05:06:35.230Z,1020.14
2023-01-12T05:11:37.329Z,1020.20
2023-01-12T05:16:36.555Z,1020.27
2023-01-12T05:21:37.803Z,1020.21
2023-01-12T05:26:38.987Z,1020.37
2023-01-12T05:31:40.166Z,1020.53
2023-01-12T05:36:41.328Z,1020.53
2023-01-12T05:41:42.525Z,1020.49
2023-01-12T05:46:44.700Z,1020.33
2023-01-12T05:51:43.880Z,1020.20
2023-01-12T05:56:45.006Z,1020.14
2023-01-12T06:01:46.157Z,1020.32
2023-01-12T06:06:47.314Z,1020.32
2023-01-12T06:11:48.487Z,1020.42
2023-01-12T06:16:49.613Z,1020.36
2023-01-12T06:21:50.754Z,1020.41
2023-01-12T06:26:51.920Z,1020.54
2023-01-12T06:31:53.055Z,1020.45
2023-01-12T06:36:54.223Z,1020.67
2023-01-12T06:41:56.420Z,1020.67
2023-01-12T06:46:55.602Z,1020.62
2023-01-12T06:51:57.733Z,1020.53
2023-01-12T06:56:56.907Z,1020.61
2023-01-12T07:01:58.139Z,1020.53
2023-01-12T07:07:00.253Z,1020.57
2023-01-12T07:12:00.402Z,1020.62
2023-01-12T07:16:59.586Z,1020.57
2023-01-12T07:22:00.691Z,1020.44
2023-01-12T07:27:01.844Z,1020.50
2023-01-12T07:32:02.956Z,1020.40
2023-01-12T07:37:04.068Z,1020.44
2023-01-12T07:42:06.219Z,1020.29
2023-01-12T07:47:05.302Z,1020.27
2023-01-12T07:52:06.463Z,1020.13
2023-01-12T07:57:07.607Z,1020.24
2023-01-12T08:02:09.810Z,1020.27
2023-01-12T08:07:08.967Z,1020.21
2023-01-12T08:12:09.101Z,1020.12
2023-01-12T08:17:10.259Z,1019.87
2023-01-12T08:22:11.446Z,1019.85
2023-01-12T08:27:13.561Z,1019.98
2023-01-12T08:32:12.705Z,1020.26
2023-01-12T08:37:13.866Z,1020.23
2023-01-12T08:42:15.993Z,1020.11
2023-01-12T08:47:16.078Z,1020.03
2023-01-12T08:52:18.435Z,1020.01
2023-01-12T08:57:17.641Z,1020.04
2023-01-12T09:02:18.945Z,1020.00
2023-01-12T09:07:20.223Z,1020.02
2023-01-12T09:12:23.580Z,1020.11
2023-01-12T09:17:21.575Z,1020.12
2023-01-12T09:22:22.739Z,1020.09
2023-01-12T09:27:23.940Z,1019.90
2023-01-12T09:32:29.147Z,1020.15
2023-01-12T09:37:25.101Z,1020.17
2023-01-12T09:42:27.270Z,1020.29
2023-01-12T09:47:26.426Z,1020.12
2023-01-12T09:52:27.525Z,1020.18
2023-01-12T09:57:29.452Z,1020.11
2023-01-12T10:02:28.583Z,1020.19
2023-01-12T10:07:29.727Z,1020.04
2023-01-12T10:12:30.868Z,1020.07
2023-01-12T10:17:41.915Z,1019.96
2023-01-12T10:22:31.958Z,1020.02
2023-01-12T10:27:33.086Z,1019.92
2023-01-12T10:32:41.457Z,1019.77
2023-01-12T10:37:34.140Z,1019.65
2023-01-12T10:42:35.298Z,1019.54
2023-01-12T10:47:36.437Z,1019.42
2023-01-12T10:52:38.596Z,1019.51
2023-01-12T10:57:37.693Z,1019.41
2023-01-12T11:02:38.950Z,1019.36
2023-01-12T11:07:41.085Z,1019.37
2023-01-12T11:12:39.255Z,1019.35
2023-01-12T11:17:40.383Z,1019.40
2023-01-12T11:22:41.566Z,1019.25
2023-01-12T11:27:43.762Z,1019.03
2023-01-12T11:32:42.973Z,1018.85
2023-01-12T11:37:44.122Z,1018.73
2023-01-12T11:42:45.268Z,1018.74
2023-01-12T11:47:50.315Z,1018.76
2023-01-12T11:52:47.444Z,1018.71
2023-01-12T11:57:48.619Z,1018.67
2023-01-12T12:02:49.744Z,1018.70
2023-01-12T12:07:51.891Z,1018.55
2023-01-12T12:12:50.983Z,1018.49
2023-01-12T12:17:53.320Z,1018.46
2023-01-12T12:22:53.393Z,1018.51
2023-01-12T12:27:52.518Z,1018.38
2023-01-12T12:32:53.658Z,1018.28
2023-01-12T12:37:54.777Z,1018.28
2023-01-12T12:42:55.941Z,1018.33
2023-01-12T12:47:58.069Z,1018.30
2023-01-12T12:52:58.166Z,1018.35
2023-01-12T12:57:57.358Z,1018.23
2023-01-12T13:02:58.636Z,1018.06
2023-01-12T13:07:58.895Z,1018.07
2023-01-12T13:13:00.050Z,1018.05
2023-01-12T13:18:01.255Z,1018.08
2023-01-12T13:23:02.421Z,1017.99
2023-01-12T13:28:05.791Z,1017.97
2023-01-12T13:33:05.011Z,1017.99
2023-01-12T13:38:06.171Z,1017.99
2023-01-12T13:43:07.258Z,1017.86
2023-01-12T13:48:09.428Z,1017.77
2023-01-12T13:53:09.605Z,1017.70
2023-01-12T13:58:08.734Z,1017.83
2023-01-12T14:03:09.889Z,1017.78
2023-01-12T14:08:13.014Z,1017.77
2023-01-12T14:13:13.136Z,1017.86
2023-01-12T14:18:12.276Z,1017.81
2023-01-12T14:23:13.406Z,1017.84
2023-01-12T14:28:15.725Z,1017.75
2023-01-12T14:33:14.212Z,1017.62
2023-01-12T14:38:16.673Z,1017.50
2023-01-12T14:43:15.159Z,1017.45
2023-01-12T14:48:16.273Z,1017.34
2023-01-12T14:53:17.383Z,1017.39
2023-01-12T14:58:19.608Z,1017.52
2023-01-12T15:03:18.779Z,1017.64
2023-01-12T15:08:19.973Z,1017.38
2023-01-12T15:13:21.095Z,1017.48
2023-01-12T15:18:22.267Z,1017.38
2023-01-12T15:23:23.417Z,1017.36
2023-01-12T15:28:24.502Z,1017.33
2023-01-12T15:33:25.944Z,1017.34
2023-01-12T15:38:27.091Z,1017.35
2023-01-12T15:43:28.233Z,1017.45
2023-01-12T15:48:29.358Z,1017.58
2023-01-12T15:53:30.546Z,1017.54
2023-01-12T15:58:31.659Z,1017.41
2023-01-12T16:03:57.675Z,1017.39
2023-01-12T16:08:32.866Z,1017.47
2023-01-12T16:13:34.016Z,1017.53
2023-01-12T16:18:35.231Z,1017.59
2023-01-12T16:23:36.362Z,1017.60
2023-01-12T16:28:37.523Z,1017.53
2023-01-12T16:33:38.673Z,1017.41
2023-01-12T16:38:38.874Z,1017.31
2023-01-12T16:43:40.059Z,1017.23
2023-01-12T16:48:41.183Z,1017.27
2023-01-12T16:53:44.344Z,1017.24
2023-01-12T16:58:44.495Z,1017.16
2023-01-12T17:03:45.637Z,1017.13
2023-01-12T17:08:44.903Z,1017.19
2023-01-12T17:13:44.406Z,1017.25
2023-01-12T17:18:45.659Z,1017.15
2023-01-12T17:23:46.929Z,1017.06
2023-01-12T17:28:48.124Z,1017.06
2023-01-12T17:33:49.342Z,1016.99
2023-01-12T17:38:55.356Z,1017.09
2023-01-12T17:43:50.443Z,1017.12
2023-01-12T17:48:51.594Z,1017.15
2023-01-12T17:53:53.724Z,1017.09
2023-01-12T17:58:52.893Z,1017.14
2023-01-12T18:03:54.033Z,1017.05
2023-01-12T18:08:55.162Z,1016.98
2023-01-12T18:13:57.265Z,1016.94
2023-01-12T18:18:56.428Z,1016.82
2023-01-12T18:23:57.556Z,1016.64
2023-01-12T18:28:58.716Z,1016.47
2023-01-12T18:33:59.822Z,1016.48
2023-01-12T18:39:01.018Z,1016.55
2023-01-12T18:44:02.117Z,1016.40
2023-01-12T18:49:03.206Z,1016.46
2023-01-12T18:54:04.548Z,1016.51
2023-01-12T18:59:05.773Z,1016.46
2023-01-12T19:04:07.001Z,1016.39
2023-01-12T19:09:08.318Z,1016.34
2023-01-12T19:14:09.750Z,1016.37
2023-01-12T19:19:09.958Z,1016.31
2023-01-12T19:24:11.387Z,1016.28
2023-01-12T19:29:12.884Z,1016.21
2023-01-12T19:34:12.197Z,1016.14
2023-01-12T19:39:13.355Z,1016.23
2023-01-12T19:44:14.510Z,1016.26
2023-01-12T19:49:15.792Z,1016.18
2023-01-12T19:54:17.291Z,1016.06
2023-01-12T19:59:17.572Z,1016.19
2023-01-12T20:04:16.920Z,1016.20
2023-01-12T20:09:20.002Z,1016.19
2023-01-12T20:14:19.382Z,1016.23
2023-01-12T20:19:20.907Z,1016.07
2023-01-12T20:24:20.290Z,1016.01
2023-01-12T20:29:21.492Z,1015.96
2023-01-12T20:34:22.721Z,1015.88
2023-01-12T20:39:24.965Z,1015.67
2023-01-12T20:44:24.403Z,1015.64
2023-01-12T20:49:23.676Z,1015.62
2023-01-12T20:54:24.890Z,1015.77
2023-01-12T20:59:27.090Z,1015.77
2023-01-12T21:04:27.264Z,1015.88
2023-01-12T21:09:29.095Z,1015.77
2023-01-12T21:14:26.400Z,1015.53
2023-01-12T21:19:27.589Z,1015.65
2023-01-12T21:24:28.787Z,1015.69
2023-01-12T21:29:29.996Z,1015.63
2023-01-12T21:34:31.187Z,1015.75
2023-01-12T21:39:32.359Z,1015.72
2023-01-12T21:44:33.550Z,1015.85
2023-01-12T21:49:34.724Z,1015.61
2023-01-12T21:54:35.945Z,1015.46
2023-01-12T21:59:37.064Z,1015.59
2023-01-12T22:04:38.288Z,1015.56
2023-01-12T22:09:40.447Z,1015.46
2023-01-12T22:14:39.641Z,1015.48
2023-01-12T22:19:40.828Z,1015.47
2023-01-12T22:24:42.013Z,1015.61
2023-01-12T22:29:43.198Z,1015.72
2023-01-12T22:34:44.402Z,1015.75
2023-01-12T22:39:45.530Z,1015.72
2023-01-12T22:44:47.663Z,1015.31
2023-01-12T22:49:46.844Z,1015.68
2023-01-12T22:54:48.014Z,1015.68
2023-01-12T22:59:49.200Z,1015.65
2023-01-12T23:05:00.809Z,1015.84
2023-01-12T23:09:50.500Z,1015.60
2023-01-12T23:14:50.701Z,1015.51
2023-01-12T23:19:49.896Z,1015.40
2023-01-12T23:24:53.101Z,1015.29
2023-01-12T23:29:52.361Z,1015.19
2023-01-12T23:34:53.550Z,1015.15
2023-01-12T23:39:54.779Z,1015.21
2023-01-12T23:44:57.009Z,1014.89
2023-01-12T23:49:57.202Z,1014.95
2023-01-12T23:54:55.428Z,1014.92
2023-01-12T23:59:56.702Z,1015.11
